Time;durP1;ratioP1;P1;durP2;ratioP2;P2;SDS_P1;SDS_P2;PMS_P1;PMS_P2;Temp;Humidity;BMP_temperature;BMP_pressure;BME280_temperature;BME280_humidity;BME280_pressure;Samples;Min_cycle;Max_cycle;Signal;HPM_P1;HPM_P2
2022/07/20 00:07:31;;;;;;;1.30;0.80;;;25.00;72.60;;;;;;6698010;88;20206;-80
2022/07/20 00:17:32;;;;;;;1.45;0.90;;;24.90;73.50;;;;;;6696248;88;20292;-81
2022/07/20 00:27:32;;;;;;;1.37;0.80;;;24.90;74.20;;;;;;6691959;88;20199;-79
2022/07/20 00:37:33;;;;;;;1.30;0.70;;;24.50;75.80;;;;;;6692372;88;20187;-80
2022/07/20 00:47:34;;;;;;;1.10;0.77;;;24.40;76.20;;;;;;6698827;88;20246;-81
2022/07/20 00:57:34;;;;;;;0.93;0.62;;;24.30;77.10;;;;;;6698226;88;20249;-80
2022/07/20 01:07:37;;;;;;;1.02;0.62;;;24.10;77.50;;;;;;6697630;88;20198;-80
2022/07/20 01:17:37;;;;;;;1.27;0.68;;;24.10;79.40;;;;;;6695198;88;20245;-81
2022/07/20 01:27:38;;;;;;;0.82;0.52;;;24.20;77.80;;;;;;6693427;88;20756;-80
2022/07/20 01:37:38;;;;;;;1.20;0.70;;;24.20;77.10;;;;;;6695611;89;20281;-79
2022/07/20 01:47:39;;;;;;;0.90;0.47;;;24.40;74.30;;;;;;6694383;89;20214;-81
2022/07/20 01:57:40;;;;;;;0.85;0.52;;;24.70;72.00;;;;;;6691234;89;20189;-80
2022/07/20 02:07:41;;;;;;;1.17;1.08;;;24.80;70.40;;;;;;6685396;89;20538;-81
2022/07/20 02:17:41;;;;;;;0.97;0.50;;;24.70;70.80;;;;;;6690570;88;20223;-80
2022/07/20 02:27:42;;;;;;;1.45;0.85;;;25.40;67.70;;;;;;6691130;88;20239;-80
2022/07/20 02:37:43;;;;;;;1.15;0.82;;;25.70;66.10;;;;;;6686973;88;20195;-81
2022/07/20 02:47:44;;;;;;;1.02;0.52;;;25.90;65.10;;;;;;6690598;88;20260;-81
2022/07/20 02:57:45;;;;;;;0.73;0.50;;;26.10;64.60;;;;;;6688042;88;20347;-80
2022/07/20 03:07:45;;;;;;;0.73;0.50;;;25.70;66.30;;;;;;6690086;88;20307;-81
2022/07/20 03:17:49;;;;;;;1.12;0.73;;;25.10;72.00;;;;;;6690975;88;20203;-80
2022/07/20 03:27:53;;;;;;;1.10;0.50;;;25.00;70.10;;;;;;6690706;88;20201;-81
2022/07/20 03:37:54;;;;;;;0.95;0.52;;;24.80;69.20;;;;;;6689914;88;20586;-80
2022/07/20 03:47:55;;;;;;;0.85;0.60;;;24.90;69.80;;;;;;6689883;88;20275;-81
2022/07/20 03:57:56;;;;;;;1.12;0.50;;;24.80;72.50;;;;;;6690180;88;20650;-81
2022/07/20 04:07:56;;;;;;;0.65;0.40;;;24.60;72.40;;;;;;6689614;88;20214;-80
2022/07/20 04:17:57;;;;;;;1.10;0.60;;;23.80;75.70;;;;;;6685691;88;20229;-81
2022/07/20 04:27:58;;;;;;;1.20;0.60;;;24.00;74.30;;;;;;6689360;88;20678;-81
2022/07/20 04:37:58;;;;;;;1.37;0.60;;;24.00;73.40;;;;;;6685796;88;20197;-80
2022/07/20 04:47:59;;;;;;;1.12;0.90;;;24.20;74.90;;;;;;6688990;88;20281;-80
2022/07/20 04:58:00;;;;;;;1.13;0.60;;;24.10;74.80;;;;;;6689070;88;20234;-80
2022/07/20 05:08:02;;;;;;;1.25;0.60;;;24.00;75.30;;;;;;6688810;88;20217;-80
2022/07/20 05:18:03;;;;;;;1.12;0.52;;;24.00;74.90;;;;;;6669218;89;20184;-80
2022/07/20 05:28:03;;;;;;;1.62;0.75;;;24.10;74.50;;;;;;6671790;89;20292;-80
2022/07/20 05:38:04;;;;;;;1.93;1.00;;;24.40;74.30;;;;;;6672010;89;20225;-80
2022/07/20 05:48:06;;;;;;;1.95;1.50;;;24.70;74.80;;;;;;6670835;89;20236;-80
2022/07/20 05:58:07;;;;;;;2.05;1.10;;;24.80;75.80;;;;;;6671442;89;20661;-80
2022/07/20 06:08:08;;;;;;;1.48;1.00;;;25.20;77.00;;;;;;6671326;89;20198;-80
2022/07/20 06:18:08;;;;;;;2.42;1.40;;;25.60;77.40;;;;;;6671204;89;20188;-79
2022/07/20 06:28:09;;;;;;;2.08;1.37;;;26.00;78.10;;;;;;6670799;89;20254;-80
2022/07/20 06:38:09;;;;;;;2.42;1.67;;;26.50;79.00;;;;;;6670953;89;20269;-80
2022/07/20 06:48:10;;;;;;;2.53;1.87;;;26.90;79.90;;;;;;6670714;89;20208;-80
2022/07/20 06:58:10;;;;;;;2.70;1.70;;;27.40;79.10;;;;;;6670984;89;20187;-80
2022/07/20 07:08:11;;;;;;;3.40;2.10;;;27.60;79.90;;;;;;6674098;89;20315;-80
2022/07/20 07:18:11;;;;;;;3.08;2.25;;;28.20;79.00;;;;;;6696479;88;20293;-80
2022/07/20 07:28:12;;;;;;;3.35;2.25;;;28.60;79.40;;;;;;6707200;88;20223;-80
2022/07/20 07:38:13;;;;;;;3.30;2.40;;;29.10;78.10;;;;;;6703434;88;20593;-80
2022/07/20 07:48:54;;;;;;;2.90;1.90;;;28.30;79.70;;;;;;6692716;77;20208;-78
2022/07/20 07:58:55;;;;;;;3.08;2.17;;;28.00;82.50;;;;;;6667879;89;20228;-78
2022/07/20 08:08:57;;;;;;;3.03;2.22;;;27.90;83.40;;;;;;6667405;88;20207;-78
2022/07/20 08:18:57;;;;;;;2.67;1.83;;;28.10;82.60;;;;;;6668727;89;20242;-79
2022/07/20 08:28:58;;;;;;;2.90;1.87;;;28.90;80.10;;;;;;6668633;89;20641;-79
2022/07/20 08:38:58;;;;;;;2.50;1.62;;;28.80;80.30;;;;;;6668768;89;20642;-79
2022/07/20 08:49:00;;;;;;;2.50;1.85;;;29.90;78.50;;;;;;6668534;89;20187;-78
2022/07/20 08:59:00;;;;;;;2.87;1.90;;;30.80;77.20;;;;;;6667974;89;20184;-79
2022/07/20 09:09:04;;;;;;;4.57;2.67;;;32.00;75.30;;;;;;6669678;89;20534;-80
2022/07/20 09:19:05;;;;;;;3.22;1.98;;;32.80;73.60;;;;;;6666775;88;20202;-79
2022/07/20 09:29:06;;;;;;;2.70;1.95;;;32.70;72.30;;;;;;6683347;88;20294;-79
2022/07/20 09:39:09;;;;;;;2.92;2.05;;;32.10;73.60;;;;;;6684832;88;20198;-80
2022/07/20 09:49:10;;;;;;;2.72;1.92;;;32.20;73.20;;;;;;6686012;88;20305;-80
2022/07/20 09:59:12;;;;;;;2.05;1.55;;;31.80;72.90;;;;;;6684913;88;20204;-79
2022/07/20 10:09:14;;;;;;;2.60;1.48;;;31.90;69.90;;;;;;6680821;88;20239;-79
2022/07/20 10:19:15;;;;;;;2.22;1.55;;;32.20;70.70;;;;;;6650115;89;20210;-79
2022/07/20 10:29:38;;;;;;;2.22;1.52;;;31.90;70.60;;;;;;6656948;89;20211;-79
2022/07/20 10:39:45;;;;;;;2.20;1.67;;;33.00;69.90;;;;;;6652917;89;20189;-80
2022/07/20 10:50:03;;;;;;;2.40;1.62;;;32.40;71.40;;;;;;6652606;89;20187;-79
2022/07/20 11:00:09;;;;;;;2.42;1.65;;;32.70;71.60;;;;;;6653223;89;20184;-80
2022/07/20 11:10:39;;;;;;;3.25;2.05;;;33.10;71.10;;;;;;6662803;89;20202;-79
2022/07/20 11:20:57;;;;;;;2.92;1.50;;;33.30;69.90;;;;;;6649799;89;20218;-79
2022/07/20 11:31:00;;;;;;;3.42;2.03;;;33.90;69.60;;;;;;6650827;89;20240;-79
2022/07/20 11:41:02;;;;;;;2.50;1.52;;;33.60;68.80;;;;;;6650701;89;20209;-79
2022/07/20 11:51:06;;;;;;;1.77;1.52;;;34.20;67.50;;;;;;6650750;89;20255;-79
2022/07/20 12:01:09;;;;;;;3.12;1.70;;;34.20;67.90;;;;;;6652117;89;20246;-80
2022/07/20 12:11:11;;;;;;;2.42;1.90;;;33.90;68.20;;;;;;6649099;89;20336;-80
2022/07/20 12:21:14;;;;;;;2.40;1.60;;;33.80;68.30;;;;;;6648894;89;20257;-80
2022/07/20 12:31:20;;;;;;;1.90;1.55;;;34.20;66.80;;;;;;6651987;89;20187;-80
2022/07/20 12:41:21;;;;;;;2.00;1.30;;;35.20;64.90;;;;;;6651657;89;20203;-79
2022/07/20 12:51:21;;;;;;;1.83;1.33;;;34.50;65.60;;;;;;6651319;89;20220;-79
2022/07/20 13:01:22;;;;;;;2.10;1.40;;;34.90;64.10;;;;;;6647204;89;20201;-81
2022/07/20 13:11:22;;;;;;;1.67;1.17;;;33.90;65.70;;;;;;6655141;89;20187;-79
2022/07/20 13:21:23;;;;;;;2.28;1.52;;;33.50;67.00;;;;;;6647016;89;20542;-80
2022/07/20 13:31:25;;;;;;;1.30;1.02;;;34.90;65.50;;;;;;6650909;89;20199;-79
2022/07/20 13:41:27;;;;;;;1.77;1.30;;;35.40;64.90;;;;;;6651352;89;20672;-79
2022/07/20 13:51:27;;;;;;;1.92;1.30;;;35.90;64.10;;;;;;6676698;89;20196;-80
2022/07/20 14:01:28;;;;;;;1.67;1.10;;;35.80;63.20;;;;;;6677243;89;20272;-81
2022/07/20 14:11:28;;;;;;;1.40;1.00;;;34.60;64.30;;;;;;6678368;89;20195;-80
2022/07/20 14:21:29;;;;;;;1.42;0.82;;;35.30;64.10;;;;;;6681102;88;20220;-81
2022/07/20 14:31:31;;;;;;;1.20;1.00;;;36.10;62.10;;;;;;6683068;88;20623;-79
2022/07/20 14:41:32;;;;;;;1.40;0.80;;;36.10;62.00;;;;;;6662796;89;20245;-79
2022/07/20 14:51:32;;;;;;;1.77;1.17;;;35.20;62.40;;;;;;6660569;89;20247;-78
2022/07/20 15:01:34;;;;;;;1.62;0.80;;;33.90;63.50;;;;;;6660798;89;20515;-81
2022/07/20 15:11:35;;;;;;;1.30;1.00;;;33.20;63.50;;;;;;6661246;89;20188;-80
2022/07/20 15:21:35;;;;;;;1.53;1.03;;;32.80;64.40;;;;;;6665295;89;20184;-81
2022/07/20 15:31:36;;;;;;;2.30;1.47;;;33.40;65.70;;;;;;6668576;89;20448;-80
2022/07/20 15:41:36;;;;;;;1.58;0.93;;;34.70;64.10;;;;;;6660541;89;20527;-79
2022/07/20 15:51:37;;;;;;;1.45;0.95;;;34.90;63.60;;;;;;6659782;89;20357;-78
2022/07/20 16:01:37;;;;;;;1.90;1.10;;;34.80;63.80;;;;;;6660469;89;20240;-80
2022/07/20 16:11:38;;;;;;;1.60;1.08;;;35.00;63.80;;;;;;6662095;89;20217;-79
2022/07/20 16:21:39;;;;;;;1.53;1.10;;;34.40;63.90;;;;;;6658450;89;20206;-78
2022/07/20 16:31:39;;;;;;;2.08;1.20;;;33.30;64.50;;;;;;6656913;89;20549;-79
2022/07/20 16:41:40;;;;;;;1.40;0.80;;;32.90;65.20;;;;;;6659737;89;20199;-79
2022/07/20 16:51:40;;;;;;;1.70;1.07;;;32.70;65.30;;;;;;6660209;89;20203;-80
2022/07/20 17:01:41;;;;;;;2.03;1.20;;;32.70;64.60;;;;;;6656925;89;20205;-79
2022/07/20 17:11:42;;;;;;;1.57;1.10;;;32.90;67.30;;;;;;6664628;89;20214;-80
2022/07/20 17:21:43;;;;;;;1.43;0.80;;;33.40;68.40;;;;;;6660310;89;20633;-81
2022/07/20 17:31:43;;;;;;;1.48;1.02;;;33.20;68.20;;;;;;6660471;89;20248;-79
2022/07/20 17:41:44;;;;;;;1.67;1.13;;;32.70;69.10;;;;;;6659984;89;20196;-79
2022/07/20 17:51:46;;;;;;;1.30;0.93;;;32.40;69.80;;;;;;6659014;89;20258;-80
2022/07/20 18:01:46;;;;;;;1.17;0.80;;;32.00;70.20;;;;;;6657484;89;20212;-80
2022/07/20 18:11:48;;;;;;;1.62;1.30;;;31.60;71.30;;;;;;6656990;89;20270;-79
2022/07/20 18:21:48;;;;;;;1.60;0.90;;;31.40;71.80;;;;;;6657741;89;20216;-79
2022/07/20 18:31:49;;;;;;;1.43;1.03;;;30.90;72.00;;;;;;6655834;89;21630;-79
2022/07/20 18:41:49;;;;;;;1.45;0.80;;;30.20;73.00;;;;;;6670467;89;20204;-78
2022/07/20 18:51:50;;;;;;;1.25;0.88;;;29.80;72.00;;;;;;6668345;89;20284;-78
2022/07/20 19:01:51;;;;;;;1.92;1.20;;;28.10;82.50;;;;;;6667919;89;20312;-77
2022/07/20 19:11:51;;;;;;;2.45;1.48;;;26.80;92.20;;;;;;6672406;89;20203;-78
2022/07/20 19:21:52;;;;;;;1.58;1.02;;;26.60;95.80;;;;;;6670818;89;20191;-77
2022/07/20 19:31:52;;;;;;;1.35;0.98;;;26.40;99.10;;;;;;6666998;89;20296;-79
2022/07/20 19:42:14;;;;;;;1.58;1.30;;;26.20;99.90;;;;;;6666543;89;20217;-81
2022/07/20 19:52:15;;;;;;;1.90;1.10;;;26.00;99.90;;;;;;6681696;88;20692;-80
2022/07/20 20:02:16;;;;;;;2.33;1.60;;;26.00;99.90;;;;;;6674625;88;20675;-80
2022/07/20 20:12:17;;;;;;;1.87;1.17;;;25.60;99.90;;;;;;6666789;89;20210;-81
2022/07/20 20:22:18;;;;;;;1.73;1.10;;;25.60;99.90;;;;;;6658311;89;20217;-81
2022/07/20 20:32:18;;;;;;;1.60;1.20;;;25.40;99.90;;;;;;6655533;89;20219;-81
2022/07/20 20:42:19;;;;;;;1.40;0.95;;;25.00;99.90;;;;;;6655553;89;20284;-81
2022/07/20 20:52:19;;;;;;;1.92;1.15;;;24.80;99.90;;;;;;6651444;89;20329;-82
2022/07/20 21:02:20;;;;;;;1.50;0.97;;;24.60;99.90;;;;;;6653689;89;20196;-81
2022/07/20 21:12:21;;;;;;;1.60;0.90;;;24.20;99.90;;;;;;6651629;89;20208;-80
2022/07/20 21:22:21;;;;;;;1.17;0.70;;;23.80;99.90;;;;;;6655911;89;20681;-81
2022/07/20 21:32:22;;;;;;;1.13;0.90;;;23.10;99.90;;;;;;6659648;89;20272;-80
2022/07/20 21:42:22;;;;;;;1.08;0.45;;;22.60;99.90;;;;;;6656483;89;20566;-80
2022/07/20 21:52:24;;;;;;;0.88;0.43;;;22.10;99.90;;;;;;6653950;89;20250;-80
2022/07/20 22:02:24;;;;;;;0.70;0.50;;;22.10;99.90;;;;;;6650882;89;20691;-79
2022/07/20 22:12:25;;;;;;;0.70;0.40;;;22.00;99.90;;;;;;6654779;89;20297;-79
2022/07/20 22:22:26;;;;;;;1.10;0.50;;;20.80;99.90;;;;;;6654415;89;20281;-80
2022/07/20 22:32:26;;;;;;;1.17;0.87;;;20.00;99.90;;;;;;6655735;89;20180;-79
2022/07/20 22:42:28;;;;;;;1.50;0.55;;;19.50;99.90;;;;;;6657768;88;20515;-79
2022/07/20 22:52:29;;;;;;;1.48;0.80;;;19.60;99.90;;;;;;6690672;88;20225;-79
2022/07/20 23:02:30;;;;;;;1.10;0.70;;;19.80;99.90;;;;;;6690430;88;20862;-79
2022/07/20 23:12:30;;;;;;;0.98;0.68;;;19.60;99.90;;;;;;6687156;88;20207;-78
2022/07/20 23:22:31;;;;;;;0.70;0.45;;;19.50;99.90;;;;;;6656573;89;20233;-79
2022/07/20 23:32:31;;;;;;;0.43;0.30;;;19.60;99.90;;;;;;6657624;89;20322;-80
2022/07/20 23:42:32;;;;;;;0.75;0.52;;;19.60;99.90;;;;;;6656121;89;20325;-79
2022/07/20 23:52:33;;;;;;;0.98;0.62;;;19.80;99.90;;;;;;6656675;89;20203;-78
